sensor_id;sensor_type;location;lat;lon;timestamp;P1;durP1;ratioP1;P2;durP2;ratioP2
50821;SDS011;36794;51.212;6.980;2024-01-30T00:01:55;14.37;;;7.37;;
50821;SDS011;36794;51.212;6.980;2024-01-30T00:04:21;14.00;;;7.07;;
50821;SDS011;36794;51.212;6.980;2024-01-30T00:06:47;17.67;;;7.43;;
50821;SDS011;36794;51.212;6.980;2024-01-30T00:09:13;16.37;;;7.07;;
50821;SDS011;36794;51.212;6.980;2024-01-30T00:11:40;12.83;;;7.60;;
50821;SDS011;36794;51.212;6.980;2024-01-30T00:14:06;10.67;;;7.03;;
50821;SDS011;36794;51.212;6.980;2024-01-30T00:16:32;12.20;;;7.63;;
50821;SDS011;36794;51.212;6.980;2024-01-30T00:18:58;12.37;;;7.17;;
50821;SDS011;36794;51.212;6.980;2024-01-30T00:21:23;16.80;;;7.53;;
50821;SDS011;36794;51.212;6.980;2024-01-30T00:23:49;12.47;;;7.83;;
50821;SDS011;36794;51.212;6.980;2024-01-30T00:26:15;15.67;;;6.97;;
50821;SDS011;36794;51.212;6.980;2024-01-30T00:28:41;12.70;;;8.10;;
50821;SDS011;36794;51.212;6.980;2024-01-30T00:31:08;14.33;;;7.70;;
50821;SDS011;36794;51.212;6.980;2024-01-30T00:33:37;11.17;;;7.87;;
50821;SDS011;36794;51.212;6.980;2024-01-30T00:36:04;11.03;;;7.40;;
50821;SDS011;36794;51.212;6.980;2024-01-30T00:38:30;13.13;;;7.70;;
50821;SDS011;36794;51.212;6.980;2024-01-30T00:40:56;11.50;;;7.47;;
50821;SDS011;36794;51.212;6.980;2024-01-30T00:43:22;18.03;;;7.90;;
50821;SDS011;36794;51.212;6.980;2024-01-30T00:45:49;12.90;;;7.50;;
50821;SDS011;36794;51.212;6.980;2024-01-30T00:48:17;18.73;;;7.90;;
50821;SDS011;36794;51.212;6.980;2024-01-30T00:50:43;15.07;;;7.63;;
50821;SDS011;36794;51.212;6.980;2024-01-30T00:53:09;12.90;;;7.77;;
50821;SDS011;36794;51.212;6.980;2024-01-30T00:55:35;14.23;;;7.87;;
50821;SDS011;36794;51.212;6.980;2024-01-30T00:58:01;15.30;;;7.70;;
50821;SDS011;36794;51.212;6.980;2024-01-30T01:00:28;18.07;;;8.00;;
50821;SDS011;36794;51.212;6.980;2024-01-30T01:02:57;13.73;;;8.07;;
50821;SDS011;36794;51.212;6.980;2024-01-30T01:05:23;14.27;;;7.67;;
50821;SDS011;36794;51.212;6.980;2024-01-30T01:07:49;12.70;;;7.23;;
50821;SDS011;36794;51.212;6.980;2024-01-30T01:10:18;12.00;;;7.30;;
50821;SDS011;36794;51.212;6.980;2024-01-30T01:12:44;11.77;;;7.63;;
50821;SDS011;36794;51.212;6.980;2024-01-30T01:15:10;14.60;;;7.53;;
50821;SDS011;36794;51.212;6.980;2024-01-30T01:17:37;18.27;;;7.83;;
50821;SDS011;36794;51.212;6.980;2024-01-30T01:20:03;15.83;;;7.33;;
50821;SDS011;36794;51.212;6.980;2024-01-30T01:22:33;13.37;;;7.70;;
50821;SDS011;36794;51.212;6.980;2024-01-30T01:24:59;19.03;;;7.13;;
50821;SDS011;36794;51.212;6.980;2024-01-30T01:27:25;16.63;;;8.27;;
50821;SDS011;36794;51.212;6.980;2024-01-30T01:29:51;15.93;;;7.87;;
50821;SDS011;36794;51.212;6.980;2024-01-30T01:32:17;15.63;;;7.60;;
50821;SDS011;36794;51.212;6.980;2024-01-30T01:34:43;15.87;;;8.80;;
50821;SDS011;36794;51.212;6.980;2024-01-30T01:37:09;19.30;;;8.57;;
50821;SDS011;36794;51.212;6.980;2024-01-30T01:39:35;18.60;;;8.20;;
50821;SDS011;36794;51.212;6.980;2024-01-30T01:42:01;14.60;;;7.67;;
50821;SDS011;36794;51.212;6.980;2024-01-30T01:44:27;11.27;;;7.07;;
50821;SDS011;36794;51.212;6.980;2024-01-30T01:46:54;14.93;;;8.07;;
50821;SDS011;36794;51.212;6.980;2024-01-30T01:49:20;16.73;;;7.33;;
50821;SDS011;36794;51.212;6.980;2024-01-30T01:51:47;13.60;;;7.70;;
50821;SDS011;36794;51.212;6.980;2024-01-30T01:54:14;18.37;;;7.90;;
50821;SDS011;36794;51.212;6.980;2024-01-30T01:56:40;15.40;;;7.83;;
50821;SDS011;36794;51.212;6.980;2024-01-30T01:59:07;15.70;;;8.70;;
50821;SDS011;36794;51.212;6.980;2024-01-30T02:01:34;16.17;;;7.70;;
50821;SDS011;36794;51.212;6.980;2024-01-30T02:04:00;15.27;;;8.00;;
50821;SDS011;36794;51.212;6.980;2024-01-30T02:06:26;15.50;;;7.13;;
50821;SDS011;36794;51.212;6.980;2024-01-30T02:08:53;13.73;;;7.77;;
50821;SDS011;36794;51.212;6.980;2024-01-30T02:11:22;14.47;;;7.77;;
50821;SDS011;36794;51.212;6.980;2024-01-30T02:13:49;16.57;;;7.57;;
50821;SDS011;36794;51.212;6.980;2024-01-30T02:16:15;13.57;;;7.63;;
50821;SDS011;36794;51.212;6.980;2024-01-30T02:18:42;17.27;;;7.70;;
50821;SDS011;36794;51.212;6.980;2024-01-30T02:21:12;14.17;;;8.10;;
50821;SDS011;36794;51.212;6.980;2024-01-30T02:23:38;16.23;;;8.03;;
50821;SDS011;36794;51.212;6.980;2024-01-30T02:26:05;14.27;;;8.03;;
50821;SDS011;36794;51.212;6.980;2024-01-30T02:28:31;14.27;;;7.50;;
50821;SDS011;36794;51.212;6.980;2024-01-30T02:30:57;14.43;;;7.67;;
50821;SDS011;36794;51.212;6.980;2024-01-30T02:33:23;16.67;;;8.20;;
50821;SDS011;36794;51.212;6.980;2024-01-30T02:35:49;15.67;;;7.93;;
50821;SDS011;36794;51.212;6.980;2024-01-30T02:38:15;14.23;;;7.40;;
50821;SDS011;36794;51.212;6.980;2024-01-30T02:40:41;13.20;;;6.83;;
50821;SDS011;36794;51.212;6.980;2024-01-30T02:43:07;11.20;;;6.83;;
50821;SDS011;36794;51.212;6.980;2024-01-30T02:45:33;15.03;;;6.80;;
50821;SDS011;36794;51.212;6.980;2024-01-30T02:47:59;14.13;;;7.53;;
50821;SDS011;36794;51.212;6.980;2024-01-30T02:50:25;14.10;;;8.03;;
50821;SDS011;36794;51.212;6.980;2024-01-30T02:52:51;12.23;;;7.07;;
50821;SDS011;36794;51.212;6.980;2024-01-30T02:55:17;16.33;;;8.20;;
50821;SDS011;36794;51.212;6.980;2024-01-30T02:57:43;14.27;;;7.33;;
50821;SDS011;36794;51.212;6.980;2024-01-30T03:00:09;11.33;;;7.07;;
50821;SDS011;36794;51.212;6.980;2024-01-30T03:02:36;15.07;;;7.60;;
50821;SDS011;36794;51.212;6.980;2024-01-30T03:05:02;13.60;;;7.63;;
50821;SDS011;36794;51.212;6.980;2024-01-30T03:07:29;17.63;;;6.83;;
50821;SDS011;36794;51.212;6.980;2024-01-30T03:09:54;16.93;;;8.20;;
50821;SDS011;36794;51.212;6.980;2024-01-30T03:12:21;15.13;;;7.00;;
50821;SDS011;36794;51.212;6.980;2024-01-30T03:14:47;14.07;;;7.13;;
50821;SDS011;36794;51.212;6.980;2024-01-30T03:17:13;10.17;;;7.20;;
50821;SDS011;36794;51.212;6.980;2024-01-30T03:19:39;16.83;;;7.53;;
50821;SDS011;36794;51.212;6.980;2024-01-30T03:22:05;11.57;;;7.20;;
50821;SDS011;36794;51.212;6.980;2024-01-30T03:24:31;14.50;;;7.57;;
50821;SDS011;36794;51.212;6.980;2024-01-30T03:26:57;16.70;;;6.87;;
50821;SDS011;36794;51.212;6.980;2024-01-30T03:29:23;13.23;;;7.13;;
50821;SDS011;36794;51.212;6.980;2024-01-30T03:31:49;13.10;;;7.83;;
50821;SDS011;36794;51.212;6.980;2024-01-30T03:34:15;11.67;;;6.63;;
50821;SDS011;36794;51.212;6.980;2024-01-30T03:36:41;12.50;;;6.50;;
50821;SDS011;36794;51.212;6.980;2024-01-30T03:39:07;12.03;;;6.80;;
50821;SDS011;36794;51.212;6.980;2024-01-30T03:41:33;12.50;;;7.13;;
50821;SDS011;36794;51.212;6.980;2024-01-30T03:43:59;13.23;;;7.07;;
50821;SDS011;36794;51.212;6.980;2024-01-30T03:46:25;11.93;;;6.60;;
50821;SDS011;36794;51.212;6.980;2024-01-30T03:48:51;16.03;;;6.73;;
50821;SDS011;36794;51.212;6.980;2024-01-30T03:51:17;10.97;;;6.10;;
50821;SDS011;36794;51.212;6.980;2024-01-30T03:53:43;11.57;;;6.47;;
50821;SDS011;36794;51.212;6.980;2024-01-30T03:56:11;10.53;;;6.57;;
50821;SDS011;36794;51.212;6.980;2024-01-30T03:58:38;10.83;;;6.20;;
50821;SDS011;36794;51.212;6.980;2024-01-30T04:01:04;18.03;;;6.40;;
50821;SDS011;36794;51.212;6.980;2024-01-30T04:03:30;12.07;;;6.70;;
50821;SDS011;36794;51.212;6.980;2024-01-30T04:05:56;12.27;;;6.40;;
50821;SDS011;36794;51.212;6.980;2024-01-30T04:08:22;15.40;;;6.03;;
50821;SDS011;36794;51.212;6.980;2024-01-30T04:10:48;10.73;;;5.77;;
50821;SDS011;36794;51.212;6.980;2024-01-30T04:13:14;12.90;;;6.20;;
50821;SDS011;36794;51.212;6.980;2024-01-30T04:15:40;13.53;;;6.53;;
50821;SDS011;36794;51.212;6.980;2024-01-30T04:18:06;13.90;;;6.13;;
50821;SDS011;36794;51.212;6.980;2024-01-30T04:20:32;14.53;;;6.30;;
50821;SDS011;36794;51.212;6.980;2024-01-30T04:22:58;12.80;;;5.67;;
50821;SDS011;36794;51.212;6.980;2024-01-30T04:25:24;10.50;;;6.37;;
50821;SDS011;36794;51.212;6.980;2024-01-30T04:27:50;9.23;;;5.77;;
50821;SDS011;36794;51.212;6.980;2024-01-30T04:30:16;10.57;;;5.77;;
50821;SDS011;36794;51.212;6.980;2024-01-30T04:32:43;10.43;;;6.13;;
50821;SDS011;36794;51.212;6.980;2024-01-30T04:35:09;10.00;;;5.70;;
50821;SDS011;36794;51.212;6.980;2024-01-30T04:37:35;11.90;;;6.23;;
50821;SDS011;36794;51.212;6.980;2024-01-30T04:40:00;12.60;;;5.73;;
50821;SDS011;36794;51.212;6.980;2024-01-30T04:42:27;11.57;;;6.13;;
50821;SDS011;36794;51.212;6.980;2024-01-30T04:44:53;10.93;;;6.70;;
50821;SDS011;36794;51.212;6.980;2024-01-30T04:47:19;11.37;;;6.60;;
50821;SDS011;36794;51.212;6.980;2024-01-30T04:49:46;10.83;;;6.00;;
50821;SDS011;36794;51.212;6.980;2024-01-30T04:52:12;10.43;;;6.33;;
50821;SDS011;36794;51.212;6.980;2024-01-30T04:54:38;12.60;;;6.33;;
50821;SDS011;36794;51.212;6.980;2024-01-30T04:57:04;14.80;;;6.60;;
50821;SDS011;36794;51.212;6.980;2024-01-30T04:59:34;11.80;;;6.67;;
50821;SDS011;36794;51.212;6.980;2024-01-30T05:02:00;9.80;;;6.00;;
50821;SDS011;36794;51.212;6.980;2024-01-30T05:04:26;12.03;;;6.60;;
50821;SDS011;36794;51.212;6.980;2024-01-30T05:06:52;11.23;;;6.20;;
50821;SDS011;36794;51.212;6.980;2024-01-30T05:09:18;11.70;;;6.03;;
50821;SDS011;36794;51.212;6.980;2024-01-30T05:11:44;11.17;;;6.50;;
50821;SDS011;36794;51.212;6.980;2024-01-30T05:14:10;9.63;;;5.57;;
50821;SDS011;36794;51.212;6.980;2024-01-30T05:16:36;9.07;;;6.20;;
50821;SDS011;36794;51.212;6.980;2024-01-30T05:19:02;10.20;;;6.10;;
50821;SDS011;36794;51.212;6.980;2024-01-30T05:21:28;13.83;;;6.53;;
50821;SDS011;36794;51.212;6.980;2024-01-30T05:23:54;11.23;;;7.03;;
50821;SDS011;36794;51.212;6.980;2024-01-30T05:26:20;15.07;;;7.03;;
50821;SDS011;36794;51.212;6.980;2024-01-30T05:28:47;11.67;;;6.37;;
50821;SDS011;36794;51.212;6.980;2024-01-30T05:31:14;10.97;;;6.30;;
50821;SDS011;36794;51.212;6.980;2024-01-30T05:33:40;12.53;;;6.17;;
50821;SDS011;36794;51.212;6.980;2024-01-30T05:36:06;13.07;;;6.10;;
50821;SDS011;36794;51.212;6.980;2024-01-30T05:38:32;11.83;;;6.60;;
50821;SDS011;36794;51.212;6.980;2024-01-30T05:40:58;8.80;;;6.70;;
50821;SDS011;36794;51.212;6.980;2024-01-30T05:43:24;10.17;;;6.00;;
50821;SDS011;36794;51.212;6.980;2024-01-30T05:45:50;10.10;;;6.07;;
50821;SDS011;36794;51.212;6.980;2024-01-30T05:48:17;11.67;;;6.43;;
50821;SDS011;36794;51.212;6.980;2024-01-30T05:50:43;12.47;;;6.00;;
50821;SDS011;36794;51.212;6.980;2024-01-30T05:53:10;11.37;;;6.43;;
50821;SDS011;36794;51.212;6.980;2024-01-30T05:55:36;11.33;;;6.50;;
50821;SDS011;36794;51.212;6.980;2024-01-30T05:58:02;12.53;;;6.87;;
50821;SDS011;36794;51.212;6.980;2024-01-30T06:00:28;11.57;;;6.00;;
50821;SDS011;36794;51.212;6.980;2024-01-30T06:02:54;11.43;;;6.10;;
50821;SDS011;36794;51.212;6.980;2024-01-30T06:05:20;10.77;;;6.07;;
50821;SDS011;36794;51.212;6.980;2024-01-30T06:07:46;14.93;;;6.53;;
50821;SDS011;36794;51.212;6.980;2024-01-30T06:10:12;10.60;;;6.03;;
50821;SDS011;36794;51.212;6.980;2024-01-30T06:12:39;10.50;;;5.80;;
50821;SDS011;36794;51.212;6.980;2024-01-30T06:15:05;10.10;;;6.30;;
50821;SDS011;36794;51.212;6.980;2024-01-30T06:17:31;12.27;;;5.93;;
50821;SDS011;36794;51.212;6.980;2024-01-30T06:19:57;11.00;;;6.03;;
50821;SDS011;36794;51.212;6.980;2024-01-30T06:22:24;8.43;;;6.00;;
50821;SDS011;36794;51.212;6.980;2024-01-30T06:24:50;13.83;;;5.90;;
50821;SDS011;36794;51.212;6.980;2024-01-30T06:27:16;10.77;;;6.27;;
50821;SDS011;36794;51.212;6.980;2024-01-30T06:29:45;10.17;;;6.10;;
50821;SDS011;36794;51.212;6.980;2024-01-30T06:32:11;10.83;;;6.13;;
50821;SDS011;36794;51.212;6.980;2024-01-30T06:34:37;11.13;;;5.93;;
50821;SDS011;36794;51.212;6.980;2024-01-30T06:37:05;9.77;;;5.90;;
50821;SDS011;36794;51.212;6.980;2024-01-30T06:39:31;14.77;;;5.93;;
50821;SDS011;36794;51.212;6.980;2024-01-30T06:41:57;8.53;;;5.70;;
50821;SDS011;36794;51.212;6.980;2024-01-30T06:44:22;10.20;;;5.97;;
50821;SDS011;36794;51.212;6.980;2024-01-30T06:46:49;11.13;;;6.33;;
50821;SDS011;36794;51.212;6.980;2024-01-30T06:49:15;12.03;;;5.70;;
50821;SDS011;36794;51.212;6.980;2024-01-30T06:51:40;9.27;;;5.90;;
50821;SDS011;36794;51.212;6.980;2024-01-30T06:54:06;10.07;;;5.33;;
50821;SDS011;36794;51.212;6.980;2024-01-30T06:56:33;8.70;;;5.80;;
50821;SDS011;36794;51.212;6.980;2024-01-30T06:58:59;11.70;;;6.20;;
50821;SDS011;36794;51.212;6.980;2024-01-30T07:01:28;10.50;;;5.70;;
50821;SDS011;36794;51.212;6.980;2024-01-30T07:03:55;10.13;;;5.73;;
50821;SDS011;36794;51.212;6.980;2024-01-30T07:06:21;11.13;;;5.50;;
50821;SDS011;36794;51.212;6.980;2024-01-30T07:08:47;11.73;;;5.47;;
50821;SDS011;36794;51.212;6.980;2024-01-30T07:11:19;9.40;;;5.40;;
50821;SDS011;36794;51.212;6.980;2024-01-30T07:13:50;8.87;;;5.13;;
50821;SDS011;36794;51.212;6.980;2024-01-30T07:16:16;9.27;;;5.57;;
50821;SDS011;36794;51.212;6.980;2024-01-30T07:18:43;12.13;;;6.07;;
50821;SDS011;36794;51.212;6.980;2024-01-30T07:21:09;14.13;;;6.10;;
50821;SDS011;36794;51.212;6.980;2024-01-30T07:23:35;8.77;;;5.80;;
50821;SDS011;36794;51.212;6.980;2024-01-30T07:26:03;11.73;;;6.20;;
50821;SDS011;36794;51.212;6.980;2024-01-30T07:28:29;12.13;;;6.10;;
50821;SDS011;36794;51.212;6.980;2024-01-30T07:30:55;11.57;;;6.20;;
50821;SDS011;36794;51.212;6.980;2024-01-30T07:33:21;11.77;;;6.10;;
50821;SDS011;36794;51.212;6.980;2024-01-30T07:35:47;15.47;;;8.50;;
50821;SDS011;36794;51.212;6.980;2024-01-30T07:38:13;17.33;;;10.07;;
50821;SDS011;36794;51.212;6.980;2024-01-30T07:40:39;12.63;;;7.13;;
50821;SDS011;36794;51.212;6.980;2024-01-30T07:43:06;12.37;;;5.53;;
50821;SDS011;36794;51.212;6.980;2024-01-30T07:45:32;10.03;;;5.33;;
50821;SDS011;36794;51.212;6.980;2024-01-30T07:47:58;10.93;;;6.00;;
50821;SDS011;36794;51.212;6.980;2024-01-30T07:50:25;10.97;;;6.50;;
50821;SDS011;36794;51.212;6.980;2024-01-30T07:52:51;10.07;;;6.03;;
50821;SDS011;36794;51.212;6.980;2024-01-30T07:55:19;11.00;;;6.00;;
50821;SDS011;36794;51.212;6.980;2024-01-30T07:57:46;9.93;;;5.60;;
50821;SDS011;36794;51.212;6.980;2024-01-30T08:00:13;10.77;;;6.50;;
50821;SDS011;36794;51.212;6.980;2024-01-30T08:02:39;10.30;;;5.97;;
50821;SDS011;36794;51.212;6.980;2024-01-30T08:05:05;11.73;;;5.50;;
50821;SDS011;36794;51.212;6.980;2024-01-30T08:07:31;10.00;;;5.90;;
50821;SDS011;36794;51.212;6.980;2024-01-30T08:09:57;11.90;;;6.00;;
50821;SDS011;36794;51.212;6.980;2024-01-30T08:12:23;9.97;;;5.60;;
50821;SDS011;36794;51.212;6.980;2024-01-30T08:14:49;11.30;;;6.43;;
50821;SDS011;36794;51.212;6.980;2024-01-30T08:17:15;11.17;;;5.90;;
50821;SDS011;36794;51.212;6.980;2024-01-30T08:19:41;8.97;;;6.33;;
50821;SDS011;36794;51.212;6.980;2024-01-30T08:22:06;11.47;;;6.17;;
50821;SDS011;36794;51.212;6.980;2024-01-30T08:24:32;10.63;;;6.30;;
50821;SDS011;36794;51.212;6.980;2024-01-30T08:26:58;10.20;;;6.10;;
50821;SDS011;36794;51.212;6.980;2024-01-30T08:29:27;11.53;;;6.63;;
50821;SDS011;36794;51.212;6.980;2024-01-30T08:31:53;10.07;;;5.53;;
50821;SDS011;36794;51.212;6.980;2024-01-30T08:34:20;12.43;;;6.30;;
50821;SDS011;36794;51.212;6.980;2024-01-30T08:36:46;12.17;;;6.00;;
50821;SDS011;36794;51.212;6.980;2024-01-30T08:39:13;12.27;;;5.83;;
50821;SDS011;36794;51.212;6.980;2024-01-30T08:41:39;14.43;;;6.03;;
50821;SDS011;36794;51.212;6.980;2024-01-30T08:44:05;11.67;;;6.20;;
50821;SDS011;36794;51.212;6.980;2024-01-30T08:46:31;9.77;;;6.37;;
50821;SDS011;36794;51.212;6.980;2024-01-30T08:48:57;10.77;;;5.80;;
50821;SDS011;36794;51.212;6.980;2024-01-30T08:51:23;12.83;;;5.83;;
50821;SDS011;36794;51.212;6.980;2024-01-30T08:53:49;14.33;;;7.23;;
50821;SDS011;36794;51.212;6.980;2024-01-30T08:56:15;15.90;;;6.53;;
50821;SDS011;36794;51.212;6.980;2024-01-30T08:58:41;12.43;;;5.80;;
50821;SDS011;36794;51.212;6.980;2024-01-30T09:01:07;12.87;;;6.00;;
50821;SDS011;36794;51.212;6.980;2024-01-30T09:03:33;9.73;;;5.60;;
50821;SDS011;36794;51.212;6.980;2024-01-30T09:05:59;14.63;;;6.87;;
50821;SDS011;36794;51.212;6.980;2024-01-30T09:08:25;8.67;;;5.80;;
50821;SDS011;36794;51.212;6.980;2024-01-30T09:10:51;8.63;;;5.80;;
50821;SDS011;36794;51.212;6.980;2024-01-30T09:13:17;10.03;;;5.40;;
50821;SDS011;36794;51.212;6.980;2024-01-30T09:15:43;9.60;;;5.23;;
50821;SDS011;36794;51.212;6.980;2024-01-30T09:18:09;10.80;;;5.50;;
50821;SDS011;36794;51.212;6.980;2024-01-30T09:20:35;8.60;;;5.57;;
50821;SDS011;36794;51.212;6.980;2024-01-30T09:23:01;11.77;;;5.87;;
50821;SDS011;36794;51.212;6.980;2024-01-30T09:25:27;10.60;;;5.50;;
50821;SDS011;36794;51.212;6.980;2024-01-30T09:27:53;11.20;;;5.27;;
50821;SDS011;36794;51.212;6.980;2024-01-30T09:30:19;9.90;;;5.83;;
50821;SDS011;36794;51.212;6.980;2024-01-30T09:32:45;9.53;;;5.30;;
50821;SDS011;36794;51.212;6.980;2024-01-30T09:35:10;10.43;;;5.27;;
50821;SDS011;36794;51.212;6.980;2024-01-30T09:37:36;10.37;;;5.43;;
50821;SDS011;36794;51.212;6.980;2024-01-30T09:40:02;8.50;;;5.33;;
50821;SDS011;36794;51.212;6.980;2024-01-30T09:42:35;9.07;;;5.53;;
50821;SDS011;36794;51.212;6.980;2024-01-30T09:45:02;12.27;;;5.43;;
50821;SDS011;36794;51.212;6.980;2024-01-30T09:47:31;7.53;;;4.93;;
50821;SDS011;36794;51.212;6.980;2024-01-30T09:49:57;10.03;;;5.40;;
50821;SDS011;36794;51.212;6.980;2024-01-30T09:52:24;7.80;;;5.23;;
50821;SDS011;36794;51.212;6.980;2024-01-30T09:54:51;8.30;;;5.60;;
50821;SDS011;36794;51.212;6.980;2024-01-30T09:57:17;12.90;;;5.10;;
50821;SDS011;36794;51.212;6.980;2024-01-30T09:59:43;10.40;;;6.10;;
50821;SDS011;36794;51.212;6.980;2024-01-30T10:02:09;13.73;;;5.90;;
50821;SDS011;36794;51.212;6.980;2024-01-30T10:04:35;11.30;;;5.87;;
50821;SDS011;36794;51.212;6.980;2024-01-30T10:07:01;9.97;;;5.47;;
50821;SDS011;36794;51.212;6.980;2024-01-30T10:09:28;10.57;;;5.50;;
50821;SDS011;36794;51.212;6.980;2024-01-30T10:11:54;10.27;;;5.10;;
50821;SDS011;36794;51.212;6.980;2024-01-30T10:14:20;9.43;;;5.40;;
50821;SDS011;36794;51.212;6.980;2024-01-30T10:16:46;11.10;;;5.60;;
50821;SDS011;36794;51.212;6.980;2024-01-30T10:19:12;10.17;;;5.50;;
50821;SDS011;36794;51.212;6.980;2024-01-30T10:21:38;9.30;;;5.33;;
50821;SDS011;36794;51.212;6.980;2024-01-30T10:24:04;10.27;;;5.83;;
50821;SDS011;36794;51.212;6.980;2024-01-30T10:26:30;10.97;;;5.67;;
50821;SDS011;36794;51.212;6.980;2024-01-30T10:28:59;12.20;;;5.70;;
50821;SDS011;36794;51.212;6.980;2024-01-30T10:31:25;10.53;;;5.30;;
50821;SDS011;36794;51.212;6.980;2024-01-30T10:33:51;13.17;;;5.57;;
50821;SDS011;36794;51.212;6.980;2024-01-30T10:36:17;9.53;;;5.30;;
50821;SDS011;36794;51.212;6.980;2024-01-30T10:38:43;9.33;;;5.30;;
50821;SDS011;36794;51.212;6.980;2024-01-30T10:41:11;10.77;;;5.10;;
50821;SDS011;36794;51.212;6.980;2024-01-30T10:43:41;9.47;;;5.80;;
50821;SDS011;36794;51.212;6.980;2024-01-30T10:48:33;8.93;;;5.50;;
50821;SDS011;36794;51.212;6.980;2024-01-30T10:51:04;10.00;;;5.30;;
50821;SDS011;36794;51.212;6.980;2024-01-30T10:53:31;10.97;;;5.20;;
50821;SDS011;36794;51.212;6.980;2024-01-30T10:55:56;10.20;;;5.40;;
50821;SDS011;36794;51.212;6.980;2024-01-30T10:58:23;9.50;;;4.77;;
50821;SDS011;36794;51.212;6.980;2024-01-30T11:00:50;10.17;;;5.50;;
50821;SDS011;36794;51.212;6.980;2024-01-30T11:03:16;8.67;;;5.37;;
50821;SDS011;36794;51.212;6.980;2024-01-30T11:05:43;10.40;;;5.03;;
50821;SDS011;36794;51.212;6.980;2024-01-30T11:08:15;9.17;;;5.00;;
50821;SDS011;36794;51.212;6.980;2024-01-30T11:10:48;7.40;;;4.77;;
50821;SDS011;36794;51.212;6.980;2024-01-30T11:13:14;10.30;;;5.20;;
50821;SDS011;36794;51.212;6.980;2024-01-30T11:15:40;9.27;;;5.37;;
50821;SDS011;36794;51.212;6.980;2024-01-30T11:18:06;11.10;;;4.87;;
50821;SDS011;36794;51.212;6.980;2024-01-30T11:20:32;15.00;;;5.30;;
50821;SDS011;36794;51.212;6.980;2024-01-30T11:23:01;11.10;;;5.03;;
50821;SDS011;36794;51.212;6.980;2024-01-30T11:25:30;15.07;;;5.63;;
50821;SDS011;36794;51.212;6.980;2024-01-30T11:27:57;8.90;;;4.87;;
50821;SDS011;36794;51.212;6.980;2024-01-30T11:30:25;7.37;;;5.03;;
50821;SDS011;36794;51.212;6.980;2024-01-30T11:33:04;9.53;;;4.70;;
50821;SDS011;36794;51.212;6.980;2024-01-30T11:38:00;12.43;;;4.97;;
50821;SDS011;36794;51.212;6.980;2024-01-30T11:40:30;8.73;;;4.93;;
50821;SDS011;36794;51.212;6.980;2024-01-30T11:42:58;7.87;;;5.20;;
50821;SDS011;36794;51.212;6.980;2024-01-30T11:45:24;12.43;;;5.37;;
50821;SDS011;36794;51.212;6.980;2024-01-30T11:47:50;11.87;;;5.73;;
50821;SDS011;36794;51.212;6.980;2024-01-30T11:50:16;14.53;;;5.33;;
50821;SDS011;36794;51.212;6.980;2024-01-30T11:52:42;12.53;;;5.37;;
50821;SDS011;36794;51.212;6.980;2024-01-30T11:55:08;12.33;;;5.23;;
50821;SDS011;36794;51.212;6.980;2024-01-30T11:57:35;12.97;;;4.93;;
50821;SDS011;36794;51.212;6.980;2024-01-30T12:00:02;15.57;;;5.77;;
50821;SDS011;36794;51.212;6.980;2024-01-30T12:02:33;11.73;;;5.70;;
50821;SDS011;36794;51.212;6.980;2024-01-30T12:05:02;12.43;;;5.00;;
50821;SDS011;36794;51.212;6.980;2024-01-30T12:07:28;14.17;;;6.10;;
50821;SDS011;36794;51.212;6.980;2024-01-30T12:09:54;9.90;;;5.83;;
50821;SDS011;36794;51.212;6.980;2024-01-30T12:12:22;12.70;;;5.80;;
50821;SDS011;36794;51.212;6.980;2024-01-30T12:14:48;10.37;;;5.60;;
50821;SDS011;36794;51.212;6.980;2024-01-30T12:17:25;11.33;;;6.10;;
50821;SDS011;36794;51.212;6.980;2024-01-30T12:19:51;13.87;;;5.73;;
50821;SDS011;36794;51.212;6.980;2024-01-30T12:22:19;12.30;;;5.77;;
50821;SDS011;36794;51.212;6.980;2024-01-30T12:24:45;17.67;;;6.77;;
50821;SDS011;36794;51.212;6.980;2024-01-30T12:27:11;20.63;;;6.60;;
50821;SDS011;36794;51.212;6.980;2024-01-30T12:29:41;14.77;;;6.10;;
50821;SDS011;36794;51.212;6.980;2024-01-30T12:32:07;16.63;;;5.77;;
50821;SDS011;36794;51.212;6.980;2024-01-30T12:34:33;11.13;;;5.90;;
50821;SDS011;36794;51.212;6.980;2024-01-30T12:37:00;11.63;;;5.40;;
50821;SDS011;36794;51.212;6.980;2024-01-30T12:39:26;14.00;;;5.80;;
50821;SDS011;36794;51.212;6.980;2024-01-30T12:41:51;12.47;;;5.90;;
50821;SDS011;36794;51.212;6.980;2024-01-30T12:44:17;19.00;;;6.00;;
50821;SDS011;36794;51.212;6.980;2024-01-30T12:46:43;10.90;;;5.60;;
50821;SDS011;36794;51.212;6.980;2024-01-30T12:49:09;12.43;;;6.33;;
50821;SDS011;36794;51.212;6.980;2024-01-30T12:51:36;14.07;;;6.10;;
50821;SDS011;36794;51.212;6.980;2024-01-30T12:54:05;13.30;;;6.20;;
50821;SDS011;36794;51.212;6.980;2024-01-30T12:56:32;10.87;;;5.67;;
50821;SDS011;36794;51.212;6.980;2024-01-30T12:58:58;14.57;;;6.53;;
50821;SDS011;36794;51.212;6.980;2024-01-30T13:01:24;14.57;;;6.17;;
50821;SDS011;36794;51.212;6.980;2024-01-30T13:03:50;14.67;;;6.23;;
50821;SDS011;36794;51.212;6.980;2024-01-30T13:06:16;13.13;;;5.70;;
50821;SDS011;36794;51.212;6.980;2024-01-30T13:08:42;12.83;;;5.97;;
50821;SDS011;36794;51.212;6.980;2024-01-30T13:11:08;10.93;;;5.03;;
50821;SDS011;36794;51.212;6.980;2024-01-30T13:13:34;10.37;;;4.90;;
50821;SDS011;36794;51.212;6.980;2024-01-30T13:16:00;12.40;;;5.00;;
50821;SDS011;36794;51.212;6.980;2024-01-30T13:18:26;10.67;;;5.07;;
50821;SDS011;36794;51.212;6.980;2024-01-30T13:20:52;13.10;;;5.37;;
50821;SDS011;36794;51.212;6.980;2024-01-30T13:23:18;10.83;;;5.20;;
50821;SDS011;36794;51.212;6.980;2024-01-30T13:25:44;12.33;;;4.97;;
50821;SDS011;36794;51.212;6.980;2024-01-30T13:28:10;18.87;;;5.80;;
50821;SDS011;36794;51.212;6.980;2024-01-30T13:30:36;11.47;;;5.80;;
50821;SDS011;36794;51.212;6.980;2024-01-30T13:33:02;13.23;;;5.27;;
50821;SDS011;36794;51.212;6.980;2024-01-30T13:35:28;13.73;;;5.90;;
50821;SDS011;36794;51.212;6.980;2024-01-30T13:37:54;12.53;;;5.40;;
50821;SDS011;36794;51.212;6.980;2024-01-30T13:40:20;11.37;;;5.80;;
50821;SDS011;36794;51.212;6.980;2024-01-30T13:42:47;16.23;;;5.40;;
50821;SDS011;36794;51.212;6.980;2024-01-30T13:45:13;14.53;;;6.23;;
50821;SDS011;36794;51.212;6.980;2024-01-30T13:47:40;10.17;;;5.87;;
50821;SDS011;36794;51.212;6.980;2024-01-30T13:50:06;17.47;;;6.17;;
50821;SDS011;36794;51.212;6.980;2024-01-30T13:52:32;14.27;;;6.27;;
50821;SDS011;36794;51.212;6.980;2024-01-30T13:54:58;11.20;;;6.00;;
50821;SDS011;36794;51.212;6.980;2024-01-30T13:57:24;14.13;;;5.87;;
50821;SDS011;36794;51.212;6.980;2024-01-30T13:59:50;15.67;;;6.40;;
50821;SDS011;36794;51.212;6.980;2024-01-30T14:02:16;18.43;;;6.33;;
50821;SDS011;36794;51.212;6.980;2024-01-30T14:04:42;13.83;;;6.50;;
50821;SDS011;36794;51.212;6.980;2024-01-30T14:07:08;13.93;;;6.77;;
50821;SDS011;36794;51.212;6.980;2024-01-30T14:09:34;13.03;;;6.53;;
50821;SDS011;36794;51.212;6.980;2024-01-30T14:12:00;15.43;;;6.60;;
50821;SDS011;36794;51.212;6.980;2024-01-30T14:14:26;11.07;;;6.33;;
50821;SDS011;36794;51.212;6.980;2024-01-30T14:16:52;14.40;;;6.23;;
50821;SDS011;36794;51.212;6.980;2024-01-30T14:19:18;13.27;;;6.27;;
50821;SDS011;36794;51.212;6.980;2024-01-30T14:21:44;15.03;;;6.47;;
50821;SDS011;36794;51.212;6.980;2024-01-30T14:24:10;11.97;;;6.67;;
50821;SDS011;36794;51.212;6.980;2024-01-30T14:26:36;17.30;;;6.77;;
50821;SDS011;36794;51.212;6.980;2024-01-30T14:29:02;9.83;;;5.97;;
50821;SDS011;36794;51.212;6.980;2024-01-30T14:31:28;12.80;;;6.60;;
50821;SDS011;36794;51.212;6.980;2024-01-30T14:33:54;18.93;;;6.97;;
50821;SDS011;36794;51.212;6.980;2024-01-30T14:36:20;13.37;;;6.20;;